sensor_id;sensor_type;location;lat;lon;timestamp;temperature;humidity
8402;DHT22;4238;48.404;9.498;2023-07-24T04:00:57;15.90;93.40
8402;DHT22;4238;48.404;9.498;2023-07-24T04:03:25;15.70;94.10
8402;DHT22;4238;48.404;9.498;2023-07-24T04:05:52;15.60;96.60
8402;DHT22;4238;48.404;9.498;2023-07-24T04:08:19;15.60;98.20
8402;DHT22;4238;48.404;9.498;2023-07-24T04:10:45;15.50;99.90
8402;DHT22;4238;48.404;9.498;2023-07-24T04:13:12;15.50;99.00
8402;DHT22;4238;48.404;9.498;2023-07-24T04:15:39;15.60;99.90
8402;DHT22;4238;48.404;9.498;2023-07-24T04:18:07;15.70;99.20
8402;DHT22;4238;48.404;9.498;2023-07-24T04:20:34;15.60;98.50
8402;DHT22;4238;48.404;9.498;2023-07-24T04:23:01;15.60;99.90
8402;DHT22;4238;48.404;9.498;2023-07-24T04:25:28;15.70;99.90
8402;DHT22;4238;48.404;9.498;2023-07-24T04:27:55;15.70;99.90
8402;DHT22;4238;48.404;9.498;2023-07-24T04:30:22;15.80;99.90
8402;DHT22;4238;48.404;9.498;2023-07-24T04:32:49;15.80;99.80
8402;DHT22;4238;48.404;9.498;2023-07-24T04:35:17;16.00;99.20
8402;DHT22;4238;48.404;9.498;2023-07-24T04:37:44;16.10;99.90
8402;DHT22;4238;48.404;9.498;2023-07-24T04:40:11;16.20;98.20
8402;DHT22;4238;48.404;9.498;2023-07-24T04:42:38;16.20;99.70
8402;DHT22;4238;48.404;9.498;2023-07-24T04:45:06;16.30;99.90
8402;DHT22;4238;48.404;9.498;2023-07-24T04:47:33;16.50;98.70
8402;DHT22;4238;48.404;9.498;2023-07-24T04:50:02;16.60;95.10
8402;DHT22;4238;48.404;9.498;2023-07-24T04:52:30;16.70;93.10
8402;DHT22;4238;48.404;9.498;2023-07-24T04:54:57;16.80;90.30
8402;DHT22;4238;48.404;9.498;2023-07-24T04:57:24;16.80;93.00
8402;DHT22;4238;48.404;9.498;2023-07-24T04:59:51;16.80;93.00
8402;DHT22;4238;48.404;9.498;2023-07-24T05:02:17;16.80;95.40
8402;DHT22;4238;48.404;9.498;2023-07-24T05:04:44;16.90;96.20
8402;DHT22;4238;48.404;9.498;2023-07-24T05:07:11;17.00;97.10
8402;DHT22;4238;48.404;9.498;2023-07-24T05:09:39;17.00;97.40
8402;DHT22;4238;48.404;9.498;2023-07-24T05:12:07;17.10;89.10
8402;DHT22;4238;48.404;9.498;2023-07-24T05:14:33;17.40;66.50
8402;DHT22;4238;48.404;9.498;2023-07-24T05:17:00;17.60;63.30
8402;DHT22;4238;48.404;9.498;2023-07-24T05:19:27;17.80;52.10
8402;DHT22;4238;48.404;9.498;2023-07-24T05:21:54;18.10;31.20
8402;DHT22;4238;48.404;9.498;2023-07-24T05:24:21;18.30;23.90
8402;DHT22;4238;48.404;9.498;2023-07-24T05:26:49;18.50;18.60
8402;DHT22;4238;48.404;9.498;2023-07-24T05:29:16;18.60;1.00
8402;DHT22;4238;48.404;9.498;2023-07-24T05:31:43;18.60;12.20
8402;DHT22;4238;48.404;9.498;2023-07-24T05:34:10;18.60;30.00
8402;DHT22;4238;48.404;9.498;2023-07-24T05:36:36;18.60;32.50
8402;DHT22;4238;48.404;9.498;2023-07-24T05:39:03;18.60;45.90
8402;DHT22;4238;48.404;9.498;2023-07-24T05:41:30;18.50;46.60
8402;DHT22;4238;48.404;9.498;2023-07-24T05:43:58;18.30;42.80
8402;DHT22;4238;48.404;9.498;2023-07-24T05:46:25;18.30;55.30
8402;DHT22;4238;48.404;9.498;2023-07-24T05:48:52;18.20;44.10
8402;DHT22;4238;48.404;9.498;2023-07-24T05:51:19;18.10;53.90
8402;DHT22;4238;48.404;9.498;2023-07-24T05:53:46;18.10;55.90
8402;DHT22;4238;48.404;9.498;2023-07-24T05:56:13;18.20;48.80
8402;DHT22;4238;48.404;9.498;2023-07-24T05:58:40;18.30;55.70
8402;DHT22;4238;48.404;9.498;2023-07-24T06:01:08;18.30;53.90
8402;DHT22;4238;48.404;9.498;2023-07-24T06:03:35;18.30;50.60
8402;DHT22;4238;48.404;9.498;2023-07-24T06:06:04;18.30;45.40
8402;DHT22;4238;48.404;9.498;2023-07-24T06:08:31;18.30;51.90
8402;DHT22;4238;48.404;9.498;2023-07-24T06:10:58;18.30;48.00
8402;DHT22;4238;48.404;9.498;2023-07-24T06:13:25;18.20;53.50
8402;DHT22;4238;48.404;9.498;2023-07-24T06:15:52;18.30;53.40
8402;DHT22;4238;48.404;9.498;2023-07-24T06:18:20;18.40;55.10
8402;DHT22;4238;48.404;9.498;2023-07-24T06:20:47;18.40;54.90
8402;DHT22;4238;48.404;9.498;2023-07-24T06:23:15;18.30;57.60
8402;DHT22;4238;48.404;9.498;2023-07-24T06:25:43;18.40;63.90
8402;DHT22;4238;48.404;9.498;2023-07-24T06:28:10;18.40;65.40
8402;DHT22;4238;48.404;9.498;2023-07-24T06:30:38;18.30;72.60
8402;DHT22;4238;48.404;9.498;2023-07-24T06:33:05;18.30;75.10
8402;DHT22;4238;48.404;9.498;2023-07-24T06:35:33;18.30;80.40
8402;DHT22;4238;48.404;9.498;2023-07-24T06:38:00;18.30;80.30
8402;DHT22;4238;48.404;9.498;2023-07-24T06:40:27;18.30;80.20
8402;DHT22;4238;48.404;9.498;2023-07-24T06:42:53;18.20;82.40
8402;DHT22;4238;48.404;9.498;2023-07-24T06:45:20;18.20;84.20
8402;DHT22;4238;48.404;9.498;2023-07-24T06:47:47;18.30;87.20
8402;DHT22;4238;48.404;9.498;2023-07-24T06:50:14;18.30;87.10
8402;DHT22;4238;48.404;9.498;2023-07-24T06:52:42;18.20;85.30
8402;DHT22;4238;48.404;9.498;2023-07-24T06:55:09;18.20;88.50
8402;DHT22;4238;48.404;9.498;2023-07-24T06:57:36;18.30;90.20
8402;DHT22;4238;48.404;9.498;2023-07-24T07:00:03;18.30;93.80
8402;DHT22;4238;48.404;9.498;2023-07-24T07:02:30;18.40;92.00
8402;DHT22;4238;48.404;9.498;2023-07-24T07:04:57;18.50;90.20
8402;DHT22;4238;48.404;9.498;2023-07-24T07:07:24;18.50;89.60
8402;DHT22;4238;48.404;9.498;2023-07-24T07:09:52;18.60;86.30
8402;DHT22;4238;48.404;9.498;2023-07-24T07:12:19;18.70;82.50
8402;DHT22;4238;48.404;9.498;2023-07-24T07:14:46;18.80;76.50
8402;DHT22;4238;48.404;9.498;2023-07-24T07:17:13;18.80;58.80
8402;DHT22;4238;48.404;9.498;2023-07-24T07:19:40;18.90;70.10
8402;DHT22;4238;48.404;9.498;2023-07-24T07:22:07;19.00;63.60
8402;DHT22;4238;48.404;9.498;2023-07-24T07:24:33;19.10;48.80
8402;DHT22;4238;48.404;9.498;2023-07-24T07:27:02;19.10;43.20
8402;DHT22;4238;48.404;9.498;2023-07-24T07:29:29;19.20;39.40
8402;DHT22;4238;48.404;9.498;2023-07-24T07:31:56;19.20;41.20
8402;DHT22;4238;48.404;9.498;2023-07-24T07:34:23;19.30;26.80
8402;DHT22;4238;48.404;9.498;2023-07-24T07:36:50;19.30;19.50
8402;DHT22;4238;48.404;9.498;2023-07-24T07:39:17;19.40;16.00
8402;DHT22;4238;48.404;9.498;2023-07-24T07:41:44;19.60;7.30
8402;DHT22;4238;48.404;9.498;2023-07-24T07:44:12;19.70;1.00
8402;DHT22;4238;48.404;9.498;2023-07-24T07:46:39;19.80;1.00
8402;DHT22;4238;48.404;9.498;2023-07-24T07:49:06;20.00;1.00
8402;DHT22;4238;48.404;9.498;2023-07-24T07:51:32;20.20;1.00
8402;DHT22;4238;48.404;9.498;2023-07-24T07:53:59;20.40;1.00
8402;DHT22;4238;48.404;9.498;2023-07-24T07:56:26;20.60;1.00
8402;DHT22;4238;48.404;9.498;2023-07-24T07:58:53;20.80;1.00
8402;DHT22;4238;48.404;9.498;2023-07-24T08:01:21;21.00;1.00
8402;DHT22;4238;48.404;9.498;2023-07-24T08:03:48;21.10;1.00
8402;DHT22;4238;48.404;9.498;2023-07-24T08:06:15;21.20;1.00
8402;DHT22;4238;48.404;9.498;2023-07-24T08:08:42;21.20;99.90
8402;DHT22;4238;48.404;9.498;2023-07-24T08:11:08;21.20;99.90
8402;DHT22;4238;48.404;9.498;2023-07-24T08:13:35;21.10;99.90
8402;DHT22;4238;48.404;9.498;2023-07-24T08:16:02;20.90;99.90
8402;DHT22;4238;48.404;9.498;2023-07-24T08:18:31;20.80;1.00
8402;DHT22;4238;48.404;9.498;2023-07-24T08:20:57;20.80;1.00
8402;DHT22;4238;48.404;9.498;2023-07-24T08:23:24;20.80;1.00
8402;DHT22;4238;48.404;9.498;2023-07-24T08:25:52;20.80;1.00
8402;DHT22;4238;48.404;9.498;2023-07-24T08:28:19;20.90;1.00
8402;DHT22;4238;48.404;9.498;2023-07-24T08:30:46;20.90;1.00
8402;DHT22;4238;48.404;9.498;2023-07-24T08:33:22;21.00;1.00
8402;DHT22;4238;48.404;9.498;2023-07-24T08:35:59;21.10;1.00
8402;DHT22;4238;48.404;9.498;2023-07-24T08:38:25;21.40;1.00
8402;DHT22;4238;48.404;9.498;2023-07-24T08:41:00;21.50;99.90
8402;DHT22;4238;48.404;9.498;2023-07-24T08:43:29;21.50;99.90
8402;DHT22;4238;48.404;9.498;2023-07-24T08:45:57;21.60;99.90
8402;DHT22;4238;48.404;9.498;2023-07-24T08:48:26;21.70;1.00
8402;DHT22;4238;48.404;9.498;2023-07-24T08:50:53;21.80;1.00
8402;DHT22;4238;48.404;9.498;2023-07-24T08:53:23;21.70;1.00
8402;DHT22;4238;48.404;9.498;2023-07-24T08:55:52;21.70;1.00
8402;DHT22;4238;48.404;9.498;2023-07-24T08:58:20;21.50;1.00
8402;DHT22;4238;48.404;9.498;2023-07-24T09:00:47;21.30;99.90
8402;DHT22;4238;48.404;9.498;2023-07-24T09:03:13;21.00;99.90
8402;DHT22;4238;48.404;9.498;2023-07-24T09:05:40;20.90;1.00
8402;DHT22;4238;48.404;9.498;2023-07-24T09:08:07;20.80;1.00
8402;DHT22;4238;48.404;9.498;2023-07-24T09:10:35;20.80;1.00
8402;DHT22;4238;48.404;9.498;2023-07-24T09:13:02;20.80;1.00
8402;DHT22;4238;48.404;9.498;2023-07-24T09:15:39;20.80;1.00
8402;DHT22;4238;48.404;9.498;2023-07-24T09:18:06;20.90;1.00
8402;DHT22;4238;48.404;9.498;2023-07-24T09:20:38;20.90;1.00
8402;DHT22;4238;48.404;9.498;2023-07-24T09:23:06;20.80;1.00
8402;DHT22;4238;48.404;9.498;2023-07-24T09:25:35;20.70;1.00
8402;DHT22;4238;48.404;9.498;2023-07-24T09:28:09;20.70;1.00
8402;DHT22;4238;48.404;9.498;2023-07-24T09:30:37;20.60;1.00
8402;DHT22;4238;48.404;9.498;2023-07-24T09:33:04;20.40;1.00
8402;DHT22;4238;48.404;9.498;2023-07-24T09:35:31;20.30;1.00
8402;DHT22;4238;48.404;9.498;2023-07-24T09:38:06;20.20;1.00
8402;DHT22;4238;48.404;9.498;2023-07-24T09:40:52;20.00;8.10
8402;DHT22;4238;48.404;9.498;2023-07-24T09:43:21;19.60;58.30
8402;DHT22;4238;48.404;9.498;2023-07-24T09:45:49;19.40;70.10
8402;DHT22;4238;48.404;9.498;2023-07-24T09:48:17;19.30;82.40
8402;DHT22;4238;48.404;9.498;2023-07-24T09:50:45;19.20;63.60
8402;DHT22;4238;48.404;9.498;2023-07-24T09:53:17;19.00;91.40
8402;DHT22;4238;48.404;9.498;2023-07-24T09:55:51;19.00;91.60
8402;DHT22;4238;48.404;9.498;2023-07-24T09:58:20;18.90;99.90
8402;DHT22;4238;48.404;9.498;2023-07-24T10:00:49;18.90;94.70
8402;DHT22;4238;48.404;9.498;2023-07-24T10:03:17;18.70;99.90
8402;DHT22;4238;48.404;9.498;2023-07-24T10:05:46;18.80;96.00
8402;DHT22;4238;48.404;9.498;2023-07-24T10:08:14;18.70;99.90
8402;DHT22;4238;48.404;9.498;2023-07-24T10:10:42;18.80;99.90
8402;DHT22;4238;48.404;9.498;2023-07-24T10:13:09;18.70;99.90
8402;DHT22;4238;48.404;9.498;2023-07-24T10:15:40;18.60;99.90
8402;DHT22;4238;48.404;9.498;2023-07-24T10:18:08;18.40;99.90
8402;DHT22;4238;48.404;9.498;2023-07-24T10:20:36;18.30;99.90
8402;DHT22;4238;48.404;9.498;2023-07-24T10:23:05;18.30;99.90
8402;DHT22;4238;48.404;9.498;2023-07-24T10:25:33;18.30;99.90
8402;DHT22;4238;48.404;9.498;2023-07-24T10:28:05;18.40;99.90
8402;DHT22;4238;48.404;9.498;2023-07-24T10:30:33;18.40;99.90
8402;DHT22;4238;48.404;9.498;2023-07-24T10:33:07;18.40;99.90
8402;DHT22;4238;48.404;9.498;2023-07-24T10:35:42;18.40;99.90
8402;DHT22;4238;48.404;9.498;2023-07-24T10:38:09;18.50;99.90
8402;DHT22;4238;48.404;9.498;2023-07-24T10:40:36;18.40;99.90
8402;DHT22;4238;48.404;9.498;2023-07-24T10:43:07;18.40;99.90
8402;DHT22;4238;48.404;9.498;2023-07-24T10:45:48;18.40;99.90
8402;DHT22;4238;48.404;9.498;2023-07-24T10:48:17;18.40;99.90
8402;DHT22;4238;48.404;9.498;2023-07-24T10:50:45;18.40;99.90
8402;DHT22;4238;48.404;9.498;2023-07-24T10:53:15;18.40;99.90
8402;DHT22;4238;48.404;9.498;2023-07-24T10:55:42;18.30;99.90
8402;DHT22;4238;48.404;9.498;2023-07-24T10:58:11;18.20;99.90
8402;DHT22;4238;48.404;9.498;2023-07-24T11:00:38;18.10;99.90
8402;DHT22;4238;48.404;9.498;2023-07-24T11:03:08;18.10;99.90
8402;DHT22;4238;48.404;9.498;2023-07-24T11:05:39;17.90;99.90
8402;DHT22;4238;48.404;9.498;2023-07-24T11:08:09;17.90;99.90
8402;DHT22;4238;48.404;9.498;2023-07-24T11:10:44;17.80;99.90
8402;DHT22;4238;48.404;9.498;2023-07-24T11:13:12;17.80;99.90
8402;DHT22;4238;48.404;9.498;2023-07-24T11:15:39;17.60;99.90
8402;DHT22;4238;48.404;9.498;2023-07-24T11:18:06;17.60;99.90
8402;DHT22;4238;48.404;9.498;2023-07-24T11:20:38;17.60;99.90
8402;DHT22;4238;48.404;9.498;2023-07-24T11:23:05;17.80;99.90
8402;DHT22;4238;48.404;9.498;2023-07-24T11:25:32;18.00;99.90
8402;DHT22;4238;48.404;9.498;2023-07-24T11:28:00;18.30;99.90
8402;DHT22;4238;48.404;9.498;2023-07-24T11:30:28;18.60;99.90
8402;DHT22;4238;48.404;9.498;2023-07-24T11:32:54;18.90;99.90
8402;DHT22;4238;48.404;9.498;2023-07-24T11:35:23;19.30;99.50
8402;DHT22;4238;48.404;9.498;2023-07-24T11:37:52;19.90;99.60
8402;DHT22;4238;48.404;9.498;2023-07-24T11:40:19;20.40;96.10
8402;DHT22;4238;48.404;9.498;2023-07-24T11:42:47;20.70;50.30
8402;DHT22;4238;48.404;9.498;2023-07-24T11:45:15;20.60;47.90
8402;DHT22;4238;48.404;9.498;2023-07-24T11:47:43;20.80;49.50
8402;DHT22;4238;48.404;9.498;2023-07-24T11:50:10;20.90;57.10
8402;DHT22;4238;48.404;9.498;2023-07-24T11:52:38;20.90;33.70
8402;DHT22;4238;48.404;9.498;2023-07-24T11:55:08;20.50;23.50
8402;DHT22;4238;48.404;9.498;2023-07-24T11:57:34;20.30;43.00
8402;DHT22;4238;48.404;9.498;2023-07-24T12:00:02;20.20;66.60
8402;DHT22;4238;48.404;9.498;2023-07-24T12:02:31;19.90;53.80
8402;DHT22;4238;48.404;9.498;2023-07-24T12:04:58;19.80;78.30
8402;DHT22;4238;48.404;9.498;2023-07-24T12:07:33;19.70;94.60
8402;DHT22;4238;48.404;9.498;2023-07-24T12:10:00;19.90;99.00
8402;DHT22;4238;48.404;9.498;2023-07-24T12:12:39;19.80;97.50
8402;DHT22;4238;48.404;9.498;2023-07-24T12:15:07;19.90;95.30
8402;DHT22;4238;48.404;9.498;2023-07-24T12:17:34;19.90;92.20
8402;DHT22;4238;48.404;9.498;2023-07-24T12:20:01;19.80;95.80
8402;DHT22;4238;48.404;9.498;2023-07-24T12:22:29;19.80;97.40
8402;DHT22;4238;48.404;9.498;2023-07-24T12:24:56;19.70;95.70
8402;DHT22;4238;48.404;9.498;2023-07-24T12:27:23;19.70;93.50
8402;DHT22;4238;48.404;9.498;2023-07-24T12:29:52;19.60;95.80
8402;DHT22;4238;48.404;9.498;2023-07-24T12:32:19;19.50;85.30
8402;DHT22;4238;48.404;9.498;2023-07-24T12:34:49;19.30;96.00
8402;DHT22;4238;48.404;9.498;2023-07-24T12:37:17;19.20;99.90
8402;DHT22;4238;48.404;9.498;2023-07-24T12:39:44;19.00;99.90
8402;DHT22;4238;48.404;9.498;2023-07-24T12:42:12;18.80;99.90
8402;DHT22;4238;48.404;9.498;2023-07-24T12:44:39;18.50;99.90
8402;DHT22;4238;48.404;9.498;2023-07-24T12:47:07;18.50;99.90
8402;DHT22;4238;48.404;9.498;2023-07-24T12:49:34;18.40;99.90
8402;DHT22;4238;48.404;9.498;2023-07-24T12:52:02;18.40;99.90
8402;DHT22;4238;48.404;9.498;2023-07-24T12:54:29;18.30;99.90
8402;DHT22;4238;48.404;9.498;2023-07-24T12:56:56;18.50;99.90
8402;DHT22;4238;48.404;9.498;2023-07-24T12:59:23;18.60;99.90
8402;DHT22;4238;48.404;9.498;2023-07-24T13:01:49;18.50;99.90
8402;DHT22;4238;48.404;9.498;2023-07-24T13:04:19;18.60;99.90
8402;DHT22;4238;48.404;9.498;2023-07-24T13:06:46;18.70;99.90
8402;DHT22;4238;48.404;9.498;2023-07-24T13:09:13;18.80;99.90
8402;DHT22;4238;48.404;9.498;2023-07-24T13:11:40;19.00;99.90
8402;DHT22;4238;48.404;9.498;2023-07-24T13:14:07;19.10;99.90
8402;DHT22;4238;48.404;9.498;2023-07-24T13:16:33;19.30;99.90
8402;DHT22;4238;48.404;9.498;2023-07-24T13:19:00;19.50;99.90
8402;DHT22;4238;48.404;9.498;2023-07-24T13:21:28;19.80;98.60
8402;DHT22;4238;48.404;9.498;2023-07-24T13:23:55;20.00;83.80
8402;DHT22;4238;48.404;9.498;2023-07-24T13:26:22;20.10;71.10
8402;DHT22;4238;48.404;9.498;2023-07-24T13:28:49;20.10;53.90
8402;DHT22;4238;48.404;9.498;2023-07-24T13:31:18;20.10;56.90
8402;DHT22;4238;48.404;9.498;2023-07-24T13:33:46;19.90;65.50
8402;DHT22;4238;48.404;9.498;2023-07-24T13:36:12;19.90;71.60
8402;DHT22;4238;48.404;9.498;2023-07-24T13:38:41;19.70;62.40
8402;DHT22;4238;48.404;9.498;2023-07-24T13:41:08;19.60;70.50
8402;DHT22;4238;48.404;9.498;2023-07-24T13:43:35;19.40;79.40
8402;DHT22;4238;48.404;9.498;2023-07-24T13:46:02;19.30;81.30
8402;DHT22;4238;48.404;9.498;2023-07-24T13:48:30;19.20;80.30
8402;DHT22;4238;48.404;9.498;2023-07-24T13:50:57;19.00;89.40
8402;DHT22;4238;48.404;9.498;2023-07-24T13:53:24;19.00;95.60
8402;DHT22;4238;48.404;9.498;2023-07-24T13:55:53;18.80;99.60
8402;DHT22;4238;48.404;9.498;2023-07-24T13:58:20;18.40;99.90
8402;DHT22;4238;48.404;9.498;2023-07-24T14:00:47;18.00;99.90
8402;DHT22;4238;48.404;9.498;2023-07-24T14:03:14;17.90;99.90
8402;DHT22;4238;48.404;9.498;2023-07-24T14:05:41;17.90;99.90
8402;DHT22;4238;48.404;9.498;2023-07-24T14:08:08;17.90;99.90
8402;DHT22;4238;48.404;9.498;2023-07-24T14:10:34;17.90;99.90
8402;DHT22;4238;48.404;9.498;2023-07-24T14:13:03;18.00;99.90
8402;DHT22;4238;48.404;9.498;2023-07-24T14:15:30;18.10;99.90
8402;DHT22;4238;48.404;9.498;2023-07-24T14:17:56;18.10;99.90
8402;DHT22;4238;48.404;9.498;2023-07-24T14:20:23;18.00;99.90
8402;DHT22;4238;48.404;9.498;2023-07-24T14:22:50;18.00;99.90
8402;DHT22;4238;48.404;9.498;2023-07-24T14:25:17;18.00;99.90
8402;DHT22;4238;48.404;9.498;2023-07-24T14:27:44;18.00;99.90
8402;DHT22;4238;48.404;9.498;2023-07-24T14:30:12;18.00;99.90
8402;DHT22;4238;48.404;9.498;2023-07-24T14:32:39;17.90;99.90
8402;DHT22;4238;48.404;9.498;2023-07-24T14:35:06;17.90;99.90
8402;DHT22;4238;48.404;9.498;2023-07-24T14:37:36;18.00;99.90
8402;DHT22;4238;48.404;9.498;2023-07-24T14:40:03;17.90;99.90
8402;DHT22;4238;48.404;9.498;2023-07-24T14:42:31;18.00;99.90
8402;DHT22;4238;48.404;9.498;2023-07-24T14:44:57;18.00;99.90
8402;DHT22;4238;48.404;9.498;2023-07-24T14:47:29;17.90;99.90
8402;DHT22;4238;48.404;9.498;2023-07-24T14:49:57;17.90;99.90
8402;DHT22;4238;48.404;9.498;2023-07-24T14:52:24;17.90;99.90
8402;DHT22;4238;48.404;9.498;2023-07-24T14:54:51;17.80;99.90
8402;DHT22;4238;48.404;9.498;2023-07-24T14:57:18;17.90;99.90
8402;DHT22;4238;48.404;9.498;2023-07-24T14:59:45;17.80;99.90
8402;DHT22;4238;48.404;9.498;2023-07-24T15:02:11;17.80;99.90
8402;DHT22;4238;48.404;9.498;2023-07-24T15:04:40;17.70;99.90
8402;DHT22;4238;48.404;9.498;2023-07-24T15:07:06;17.70;99.90
8402;DHT22;4238;48.404;9.498;2023-07-24T15:09:33;17.80;99.90
8402;DHT22;4238;48.404;9.498;2023-07-24T15:12:00;17.80;99.90
8402;DHT22;4238;48.404;9.498;2023-07-24T15:14:27;17.90;99.90
8402;DHT22;4238;48.404;9.498;2023-07-24T15:16:54;18.00;99.90
8402;DHT22;4238;48.404;9.498;2023-07-24T15:19:20;18.10;99.90
8402;DHT22;4238;48.404;9.498;2023-07-24T15:21:49;18.10;99.90
8402;DHT22;4238;48.404;9.498;2023-07-24T15:24:16;18.10;99.90
8402;DHT22;4238;48.404;9.498;2023-07-24T15:26:44;18.30;99.90
8402;DHT22;4238;48.404;9.498;2023-07-24T15:29:11;18.40;99.90
8402;DHT22;4238;48.404;9.498;2023-07-24T15:31:40;18.50;99.90
8402;DHT22;4238;48.404;9.498;2023-07-24T15:34:07;18.70;99.90
8402;DHT22;4238;48.404;9.498;2023-07-24T15:36:35;18.80;99.90
8402;DHT22;4238;48.404;9.498;2023-07-24T15:39:04;18.90;99.90
8402;DHT22;4238;48.404;9.498;2023-07-24T15:41:31;19.00;99.90
8402;DHT22;4238;48.404;9.498;2023-07-24T15:43:58;19.00;99.90
8402;DHT22;4238;48.404;9.498;2023-07-24T15:46:25;19.00;99.90
8402;DHT22;4238;48.404;9.498;2023-07-24T15:48:55;19.00;99.90
8402;DHT22;4238;48.404;9.498;2023-07-24T15:51:22;19.20;99.90
8402;DHT22;4238;48.404;9.498;2023-07-24T15:53:49;19.10;99.90
8402;DHT22;4238;48.404;9.498;2023-07-24T15:56:17;19.10;99.90
8402;DHT22;4238;48.404;9.498;2023-07-24T15:58:45;19.20;99.90
8402;DHT22;4238;48.404;9.498;2023-07-24T16:01:12;19.10;99.90
8402;DHT22;4238;48.404;9.498;2023-07-24T16:03:39;19.00;99.90
8402;DHT22;4238;48.404;9.498;2023-07-24T16:06:05;19.00;99.90
8402;DHT22;4238;48.404;9.498;2023-07-24T16:08:35;18.80;99.90
8402;DHT22;4238;48.404;9.498;2023-07-24T16:11:02;18.80;99.90
8402;DHT22;4238;48.404;9.498;2023-07-24T16:13:35;18.80;99.90
8402;DHT22;4238;48.404;9.498;2023-07-24T16:16:02;18.70;99.90
8402;DHT22;4238;48.404;9.498;2023-07-24T16:18:30;18.80;99.90
8402;DHT22;4238;48.404;9.498;2023-07-24T16:20:57;18.80;99.90
8402;DHT22;4238;48.404;9.498;2023-07-24T16:23:24;19.00;99.90
8402;DHT22;4238;48.404;9.498;2023-07-24T16:25:51;19.20;99.90
8402;DHT22;4238;48.404;9.498;2023-07-24T16:28:17;19.30;99.90
8402;DHT22;4238;48.404;9.498;2023-07-24T16:30:46;19.40;99.90
8402;DHT22;4238;48.404;9.498;2023-07-24T16:33:13;19.40;99.90
8402;DHT22;4238;48.404;9.498;2023-07-24T16:35:39;19.40;99.90
8402;DHT22;4238;48.404;9.498;2023-07-24T16:38:06;19.20;99.90
8402;DHT22;4238;48.404;9.498;2023-07-24T16:40:34;18.90;99.90
8402;DHT22;4238;48.404;9.498;2023-07-24T16:43:01;19.00;99.90
8402;DHT22;4238;48.404;9.498;2023-07-24T16:45:28;19.10;99.90
8402;DHT22;4238;48.404;9.498;2023-07-24T16:47:56;19.20;99.90
8402;DHT22;4238;48.404;9.498;2023-07-24T16:50:23;19.10;99.90
8402;DHT22;4238;48.404;9.498;2023-07-24T16:52:50;19.30;99.90
8402;DHT22;4238;48.404;9.498;2023-07-24T16:55:16;19.50;99.90
8402;DHT22;4238;48.404;9.498;2023-07-24T16:57:43;19.40;99.90
8402;DHT22;4238;48.404;9.498;2023-07-24T17:00:11;19.30;99.90
8402;DHT22;4238;48.404;9.498;2023-07-24T17:02:38;19.30;99.90
8402;DHT22;4238;48.404;9.498;2023-07-24T17:05:07;19.20;99.90
8402;DHT22;4238;48.404;9.498;2023-07-24T17:07:34;19.20;99.90
8402;DHT22;4238;48.404;9.498;2023-07-24T17:10:01;19.20;99.90
8402;DHT22;4238;48.404;9.498;2023-07-24T17:12:28;19.30;99.90
8402;DHT22;4238;48.404;9.498;2023-07-24T17:14:56;19.10;99.90
8402;DHT22;4238;48.404;9.498;2023-07-24T17:17:22;19.20;99.90
8402;DHT22;4238;48.404;9.498;2023-07-24T17:19:49;19.00;99.90
8402;DHT22;4238;48.404;9.498;2023-07-24T17:22:18;18.80;99.90
8402;DHT22;4238;48.404;9.498;2023-07-24T17:24:44;18.80;99.90
8402;DHT22;4238;48.404;9.498;2023-07-24T17:27:11;18.80;99.90
8402;DHT22;4238;48.404;9.498;2023-07-24T17:29:38;18.60;99.90
8402;DHT22;4238;48.404;9.498;2023-07-24T17:32:05;18.60;99.90
8402;DHT22;4238;48.404;9.498;2023-07-24T17:34:32;18.50;99.90
8402;DHT22;4238;48.404;9.498;2023-07-24T17:37:03;18.50;99.90
8402;DHT22;4238;48.404;9.498;2023-07-24T17:39:31;18.50;99.90
8402;DHT22;4238;48.404;9.498;2023-07-24T17:41:58;18.40;99.90
8402;DHT22;4238;48.404;9.498;2023-07-24T17:44:25;18.30;99.90
8402;DHT22;4238;48.404;9.498;2023-07-24T17:46:52;18.30;99.90
8402;DHT22;4238;48.404;9.498;2023-07-24T17:49:19;18.20;99.90
8402;DHT22;4238;48.404;9.498;2023-07-24T17:51:45;18.20;99.90
8402;DHT22;4238;48.404;9.498;2023-07-24T17:54:12;18.10;99.90
8402;DHT22;4238;48.404;9.498;2023-07-24T17:56:41;18.10;99.90
8402;DHT22;4238;48.404;9.498;2023-07-24T17:59:08;18.10;99.90
8402;DHT22;4238;48.404;9.498;2023-07-24T18:01:34;18.10;99.90
8402;DHT22;4238;48.404;9.498;2023-07-24T18:04:02;18.10;99.90
8402;DHT22;4238;48.404;9.498;2023-07-24T18:06:29;18.10;99.90
8402;DHT22;4238;48.404;9.498;2023-07-24T18:08:56;18.20;99.90
8402;DHT22;4238;48.404;9.498;2023-07-24T18:11:23;18.20;99.90
8402;DHT22;4238;48.404;9.498;2023-07-24T18:13:51;18.10;99.90
8402;DHT22;4238;48.404;9.498;2023-07-24T18:16:18;18.20;99.90
8402;DHT22;4238;48.404;9.498;2023-07-24T18:18:45;18.30;99.90
8402;DHT22;4238;48.404;9.498;2023-07-24T18:21:12;18.30;99.90
8402;DHT22;4238;48.404;9.498;2023-07-24T18:23:38;18.30;99.90
8402;DHT22;4238;48.404;9.498;2023-07-24T18:26:05;18.40;99.90
8402;DHT22;4238;48.404;9.498;2023-07-24T18:28:33;18.30;99.90
8402;DHT22;4238;48.404;9.498;2023-07-24T18:31:02;18.30;99.90
8402;DHT22;4238;48.404;9.498;2023-07-24T18:33:29;18.30;99.90
8402;DHT22;4238;48.404;9.498;2023-07-24T18:35:56;18.30;99.90
8402;DHT22;4238;48.404;9.498;2023-07-24T18:38:22;18.40;99.90
8402;DHT22;4238;48.404;9.498;2023-07-24T18:40:49;18.30;99.90
8402;DHT22;4238;48.404;9.498;2023-07-24T18:43:16;18.30;99.90
8402;DHT22;4238;48.404;9.498;2023-07-24T18:45:43;18.30;99.90
8402;DHT22;4238;48.404;9.498;2023-07-24T18:48:11;18.30;99.90
8402;DHT22;4238;48.404;9.498;2023-07-24T18:50:40;18.30;99.90
8402;DHT22;4238;48.404;9.498;2023-07-24T18:53:07;18.20;99.90
8402;DHT22;4238;48.404;9.498;2023-07-24T18:55:34;18.20;99.90
8402;DHT22;4238;48.404;9.498;2023-07-24T18:58:00;18.20;99.90
8402;DHT22;4238;48.404;9.498;2023-07-24T19:00:27;18.20;97.10
8402;DHT22;4238;48.404;9.498;2023-07-24T19:02:54;18.10;96.50
8402;DHT22;4238;48.404;9.498;2023-07-24T19:05:22;18.10;94.20
8402;DHT22;4238;48.404;9.498;2023-07-24T19:07:50;18.10;93.60
8402;DHT22;4238;48.404;9.498;2023-07-24T19:10:17;18.10;96.50
8402;DHT22;4238;48.404;9.498;2023-07-24T19:12:44;18.00;97.40
8402;DHT22;4238;48.404;9.498;2023-07-24T19:15:10;17.90;96.10
8402;DHT22;4238;48.404;9.498;2023-07-24T19:17:37;17.80;95.10
8402;DHT22;4238;48.404;9.498;2023-07-24T19:20:08;17.70;94.10
8402;DHT22;4238;48.404;9.498;2023-07-24T19:22:37;17.70;95.80
8402;DHT22;4238;48.404;9.498;2023-07-24T19:25:05;17.60;95.80
8402;DHT22;4238;48.404;9.498;2023-07-24T19:27:32;17.60;95.80
8402;DHT22;4238;48.404;9.498;2023-07-24T19:29:59;17.50;95.80
8402;DHT22;4238;48.404;9.498;2023-07-24T19:32:28;17.50;98.10
8402;DHT22;4238;48.404;9.498;2023-07-24T19:34:55;17.40;99.90
8402;DHT22;4238;48.404;9.498;2023-07-24T19:37:22;17.40;98.20
8402;DHT22;4238;48.404;9.498;2023-07-24T19:39:51;17.40;99.60
8402;DHT22;4238;48.404;9.498;2023-07-24T19:42:18;17.30;99.90
8402;DHT22;4238;48.404;9.498;2023-07-24T19:44:44;17.20;99.90
8402;DHT22;4238;48.404;9.498;2023-07-24T19:47:11;17.20;99.90
8402;DHT22;4238;48.404;9.498;2023-07-24T19:49:38;17.00;99.90
8402;DHT22;4238;48.404;9.498;2023-07-24T19:52:06;16.90;99.90
8402;DHT22;4238;48.404;9.498;2023-07-24T19:54:33;16.90;99.90
8402;DHT22;4238;48.404;9.498;2023-07-24T19:57:01;16.80;99.90
8402;DHT22;4238;48.404;9.498;2023-07-24T19:59:28;16.70;99.90
8402;DHT22;4238;48.404;9.498;2023-07-24T20:01:55;16.60;99.90
8402;DHT22;4238;48.404;9.498;2023-07-24T20:04:23;16.50;99.90